createdAt,value
2023-04-30T00:02:16.450Z,18.82
2023-04-30T00:04:46.420Z,18.74
2023-04-30T00:07:14.919Z,18.67
2023-04-30T00:09:43.527Z,18.59
2023-04-30T00:12:11.994Z,18.51
2023-04-30T00:14:40.344Z,18.42
2023-04-30T00:17:08.756Z,18.33
2023-04-30T00:19:37.229Z,18.25
2023-04-30T00:22:07.152Z,18.18
2023-04-30T00:24:35.674Z,18.11
2023-04-30T00:27:04.056Z,18.05
2023-04-30T00:29:32.377Z,17.97
2023-04-30T00:32:00.832Z,17.88
2023-04-30T00:34:29.158Z,17.83
2023-04-30T00:36:57.520Z,17.76
2023-04-30T00:39:27.318Z,17.68
2023-04-30T00:41:55.747Z,17.64
2023-04-30T00:44:24.150Z,17.58
2023-04-30T00:46:52.528Z,17.53
2023-04-30T00:49:21.150Z,17.49
2023-04-30T00:51:49.736Z,17.43
2023-04-30T00:54:19.237Z,17.36
2023-04-30T00:56:49.329Z,17.30
2023-04-30T00:59:18.420Z,17.25
2023-04-30T01:01:46.928Z,17.21
2023-04-30T01:04:15.295Z,17.16
2023-04-30T01:06:43.860Z,17.12
2023-04-30T01:09:12.411Z,17.10
2023-04-30T01:11:57.744Z,17.05
2023-04-30T01:14:32.129Z,17.03
2023-04-30T01:17:07.648Z,16.99
2023-04-30T01:19:42.989Z,16.97
2023-04-30T01:22:22.129Z,16.95
2023-04-30T01:25:16.419Z,16.93
2023-04-30T01:28:04.005Z,16.92
2023-04-30T01:30:33.669Z,16.93
2023-04-30T01:33:02.368Z,16.91
2023-04-30T01:35:56.927Z,16.90
2023-04-30T01:38:46.350Z,16.90
2023-04-30T01:41:29.298Z,16.91
2023-04-30T01:44:15.484Z,16.91
2023-04-30T01:46:52.749Z,16.90
2023-04-30T01:49:31.600Z,16.90
2023-04-30T01:52:16.260Z,16.89
2023-04-30T01:54:50.452Z,16.87
2023-04-30T01:57:30.541Z,16.84
2023-04-30T02:00:00.589Z,16.86
2023-04-30T02:02:29.009Z,16.87
2023-04-30T02:04:57.401Z,16.85
2023-04-30T02:07:40.494Z,16.82
2023-04-30T02:10:11.990Z,16.82
2023-04-30T02:12:40.673Z,16.82
2023-04-30T02:15:12.258Z,16.82
2023-04-30T02:17:40.830Z,16.84
2023-04-30T02:20:10.578Z,16.87
2023-04-30T02:22:39.218Z,16.87
2023-04-30T02:25:08.557Z,16.87
2023-04-30T02:27:36.982Z,16.87
2023-04-30T02:30:06.856Z,16.86
2023-04-30T02:32:36.744Z,16.88
2023-04-30T02:35:05.909Z,16.88
2023-04-30T02:37:34.203Z,16.88
2023-04-30T02:40:02.554Z,16.86
2023-04-30T02:42:31.042Z,16.84
2023-04-30T02:44:59.444Z,16.81
2023-04-30T02:47:27.830Z,16.81
2023-04-30T02:49:57.497Z,16.81
2023-04-30T02:52:27.156Z,16.81
2023-04-30T02:54:55.587Z,16.80
2023-04-30T02:57:23.847Z,16.80
2023-04-30T02:59:52.702Z,16.81
2023-04-30T03:02:23.664Z,16.83
2023-04-30T03:04:52.423Z,16.83
2023-04-30T03:07:22.148Z,16.84
2023-04-30T03:09:50.662Z,16.85
2023-04-30T03:12:18.970Z,16.85
2023-04-30T03:14:47.289Z,16.84
2023-04-30T03:17:16.086Z,16.85
2023-04-30T03:19:44.445Z,16.85
2023-04-30T03:22:12.894Z,16.85
2023-04-30T03:24:42.567Z,16.83
2023-04-30T03:27:11.288Z,16.82
2023-04-30T03:29:39.653Z,16.82
2023-04-30T03:32:07.972Z,16.83
2023-04-30T03:34:36.401Z,16.83
2023-04-30T03:37:04.800Z,16.84
2023-04-30T03:39:33.175Z,16.84
2023-04-30T03:42:03.830Z,16.84
2023-04-30T03:44:32.196Z,16.87
2023-04-30T03:47:00.513Z,16.88
2023-04-30T03:49:28.829Z,16.90
2023-04-30T03:51:57.208Z,16.89
2023-04-30T03:54:25.590Z,16.90
2023-04-30T03:56:54.077Z,16.91
2023-04-30T03:59:23.967Z,16.92
2023-04-30T04:01:52.406Z,16.95
2023-04-30T04:04:20.767Z,16.95
2023-04-30T04:06:49.128Z,16.96
2023-04-30T04:09:17.448Z,16.98
2023-04-30T04:11:45.823Z,17.01
2023-04-30T04:14:14.146Z,17.02
2023-04-30T04:16:43.950Z,17.03
2023-04-30T04:19:13.387Z,17.04
2023-04-30T04:21:41.742Z,17.06
2023-04-30T04:24:10.556Z,17.10
2023-04-30T04:26:39.143Z,17.12
2023-04-30T04:29:08.853Z,17.13
2023-04-30T04:31:38.549Z,17.18
2023-04-30T04:34:08.514Z,17.22
2023-04-30T04:36:36.963Z,17.27
2023-04-30T04:39:05.674Z,17.30
2023-04-30T04:41:35.956Z,17.34
2023-04-30T04:44:04.656Z,17.37
2023-04-30T04:46:33.494Z,17.44
2023-04-30T04:49:02.095Z,17.45
2023-04-30T04:51:32.288Z,17.48
2023-04-30T04:54:00.784Z,17.51
2023-04-30T04:56:29.158Z,17.54
2023-04-30T04:58:57.572Z,17.59
2023-04-30T05:01:26.078Z,17.64
2023-04-30T05:03:54.924Z,17.70
2023-04-30T05:06:23.451Z,17.76
2023-04-30T05:08:53.235Z,17.81
2023-04-30T05:11:22.351Z,17.83
2023-04-30T05:13:50.703Z,17.86
2023-04-30T05:16:19.109Z,17.92
2023-04-30T05:18:47.592Z,17.98
2023-04-30T05:21:16.174Z,18.07
2023-04-30T05:23:45.918Z,18.14
2023-04-30T05:26:15.752Z,18.23
2023-04-30T05:28:44.181Z,18.34
2023-04-30T05:31:12.604Z,18.47
2023-04-30T05:33:41.157Z,18.57
2023-04-30T05:36:09.624Z,18.68
2023-04-30T05:38:37.994Z,18.79
2023-04-30T05:41:06.672Z,18.86
2023-04-30T05:43:36.437Z,18.91
2023-04-30T05:46:04.835Z,18.97
2023-04-30T05:48:33.212Z,19.02
2023-04-30T05:51:01.640Z,19.03
2023-04-30T05:53:30.001Z,19.06
2023-04-30T05:55:58.391Z,19.06
2023-04-30T05:58:27.244Z,19.12
2023-04-30T06:00:57.062Z,19.16
2023-04-30T06:03:25.350Z,19.23
2023-04-30T06:05:53.683Z,19.32
2023-04-30T06:08:22.024Z,19.47
2023-04-30T06:10:51.814Z,19.59
2023-04-30T06:13:20.423Z,19.64
2023-04-30T06:15:48.908Z,19.65
2023-04-30T06:18:18.745Z,19.59
2023-04-30T06:20:47.112Z,19.55
2023-04-30T06:23:15.509Z,19.53
2023-04-30T06:25:43.922Z,19.54
2023-04-30T06:28:12.207Z,19.53
2023-04-30T06:30:41.641Z,19.52
2023-04-30T06:33:09.961Z,19.58
2023-04-30T06:35:39.737Z,19.64
2023-04-30T06:38:08.117Z,19.68
2023-04-30T06:40:36.804Z,19.72
2023-04-30T06:43:05.145Z,19.76
2023-04-30T06:45:33.621Z,19.79
2023-04-30T06:48:01.988Z,19.83
2023-04-30T06:50:30.513Z,19.84
2023-04-30T06:53:00.628Z,19.89
2023-04-30T06:55:29.136Z,19.91
2023-04-30T06:57:58.049Z,19.99
2023-04-30T07:00:26.607Z,20.07
2023-04-30T07:02:55.275Z,20.13
2023-04-30T07:05:23.687Z,20.23
2023-04-30T07:07:52.442Z,20.30
2023-04-30T07:10:22.452Z,20.40
2023-04-30T07:12:50.902Z,20.49
2023-04-30T07:15:19.372Z,20.50
2023-04-30T07:17:47.754Z,20.55
2023-04-30T07:20:16.341Z,20.57
2023-04-30T07:22:46.211Z,20.60
2023-04-30T07:25:14.786Z,20.71
2023-04-30T07:27:45.034Z,20.85
2023-04-30T07:30:14.009Z,20.94
2023-04-30T07:32:42.797Z,21.00
2023-04-30T07:35:11.783Z,21.07
2023-04-30T07:37:41.272Z,21.18
2023-04-30T07:40:15.429Z,21.32
2023-04-30T07:42:47.316Z,21.49
2023-04-30T07:45:15.930Z,21.67
2023-04-30T07:47:44.556Z,21.83
2023-04-30T07:50:14.894Z,21.95
2023-04-30T07:52:43.694Z,22.08
2023-04-30T07:55:12.139Z,22.23
2023-04-30T07:57:40.466Z,22.36
2023-04-30T08:00:11.473Z,22.47
2023-04-30T08:02:39.921Z,22.54
2023-04-30T08:05:09.414Z,22.58
2023-04-30T08:07:37.757Z,22.60
2023-04-30T08:10:07.731Z,22.63
2023-04-30T08:12:38.122Z,22.66
2023-04-30T08:15:09.877Z,22.72
2023-04-30T08:17:38.538Z,22.85
2023-04-30T08:20:09.649Z,22.97
2023-04-30T08:22:37.999Z,23.14
2023-04-30T08:25:07.841Z,23.35
2023-04-30T08:27:36.119Z,23.46
2023-04-30T08:30:04.828Z,23.48
2023-04-30T08:32:37.006Z,23.51
2023-04-30T08:35:06.375Z,23.51
2023-04-30T08:37:35.140Z,23.46
2023-04-30T08:40:03.503Z,23.37
2023-04-30T08:42:36.934Z,23.32
2023-04-30T08:45:06.464Z,23.26
2023-04-30T08:47:36.985Z,23.16
2023-04-30T08:50:06.204Z,23.12
2023-04-30T08:52:37.695Z,23.07
2023-04-30T08:55:11.269Z,22.99
2023-04-30T08:57:39.730Z,22.97
2023-04-30T09:00:10.440Z,22.95
2023-04-30T09:02:43.945Z,22.92
2023-04-30T09:05:14.753Z,22.93
2023-04-30T09:08:01.094Z,22.95
2023-04-30T09:10:35.087Z,22.99
2023-04-30T09:13:05.932Z,23.08
2023-04-30T09:15:35.829Z,23.14
2023-04-30T09:18:15.569Z,23.18
2023-04-30T09:20:58.543Z,23.20
2023-04-30T09:23:27.153Z,23.31
2023-04-30T09:25:56.575Z,23.39
2023-04-30T09:28:27.375Z,23.45
2023-04-30T09:30:59.326Z,23.56
2023-04-30T09:33:30.251Z,23.75
2023-04-30T09:35:58.733Z,23.94
2023-04-30T09:38:29.717Z,24.09
2023-04-30T09:41:00.439Z,24.20
2023-04-30T09:43:29.174Z,24.33
2023-04-30T09:46:00.644Z,24.39
2023-04-30T09:48:30.528Z,24.47
2023-04-30T09:50:59.080Z,24.54
2023-04-30T09:53:28.096Z,24.63
2023-04-30T09:55:59.447Z,24.72
2023-04-30T09:58:30.395Z,24.82
2023-04-30T10:01:00.937Z,24.92
2023-04-30T10:03:32.702Z,25.01
2023-04-30T10:06:01.659Z,25.11
2023-04-30T10:08:33.183Z,25.25
2023-04-30T10:11:05.859Z,25.35
2023-04-30T10:13:44.224Z,25.48
2023-04-30T10:16:25.332Z,25.55
2023-04-30T10:18:59.221Z,25.54
2023-04-30T10:21:29.186Z,25.52
2023-04-30T10:23:58.983Z,25.44
2023-04-30T10:26:28.154Z,25.33
2023-04-30T10:29:01.162Z,25.25
2023-04-30T10:31:30.823Z,25.11
2023-04-30T10:34:13.101Z,24.95
2023-04-30T10:36:47.087Z,24.78
2023-04-30T10:39:16.065Z,24.70
2023-04-30T10:41:49.108Z,24.69
2023-04-30T10:44:23.212Z,24.71
2023-04-30T10:46:59.714Z,24.97
2023-04-30T10:49:29.686Z,25.34
2023-04-30T10:52:01.485Z,25.71
2023-04-30T10:54:32.581Z,26.16
2023-04-30T10:57:15.217Z,26.45
2023-04-30T10:59:54.890Z,26.76
2023-04-30T11:02:23.482Z,27.02
2023-04-30T11:05:20.657Z,27.03
2023-04-30T11:07:50.866Z,26.90
2023-04-30T11:10:23.907Z,26.61
2023-04-30T11:12:54.156Z,26.31
2023-04-30T11:15:26.175Z,26.01
2023-04-30T11:17:59.613Z,25.69
2023-04-30T11:20:30.188Z,25.38
2023-04-30T11:23:19.583Z,25.11
2023-04-30T11:25:57.794Z,24.96
2023-04-30T11:28:27.989Z,24.83
2023-04-30T11:30:58.266Z,24.71
2023-04-30T11:33:28.541Z,24.57
2023-04-30T11:36:00.228Z,24.37
2023-04-30T11:38:31.632Z,24.20
2023-04-30T11:41:00.573Z,24.09
2023-04-30T11:43:31.304Z,24.03
2023-04-30T11:46:08.674Z,23.94
2023-04-30T11:48:39.070Z,23.88
2023-04-30T11:51:16.879Z,23.88
2023-04-30T11:53:47.391Z,23.95
2023-04-30T11:56:15.750Z,24.10
2023-04-30T11:58:44.112Z,24.28
2023-04-30T12:01:12.645Z,24.41
2023-04-30T12:03:45.631Z,24.79
2023-04-30T12:06:24.375Z,25.32
2023-04-30T12:08:55.375Z,25.74
2023-04-30T12:11:25.384Z,25.96
2023-04-30T12:13:55.920Z,25.91
2023-04-30T12:16:26.553Z,25.73
2023-04-30T12:18:55.584Z,25.60
2023-04-30T12:21:25.477Z,25.49
2023-04-30T12:23:54.462Z,25.35
2023-04-30T12:26:23.377Z,25.29
2023-04-30T12:28:54.178Z,25.62
2023-04-30T12:31:22.565Z,26.41
2023-04-30T12:33:57.518Z,27.46
2023-04-30T12:36:33.852Z,28.42
2023-04-30T12:39:09.581Z,29.23
2023-04-30T12:41:46.219Z,29.67
2023-04-30T12:44:19.504Z,29.68
2023-04-30T12:46:48.945Z,29.39
2023-04-30T12:49:28.190Z,28.91
2023-04-30T12:52:07.593Z,28.43
2023-04-30T12:54:39.083Z,27.94
2023-04-30T12:57:10.180Z,27.42
2023-04-30T12:59:40.481Z,26.96
2023-04-30T13:02:11.269Z,26.54
2023-04-30T13:04:40.470Z,26.15
2023-04-30T13:07:10.883Z,25.82
2023-04-30T13:09:39.826Z,25.57
2023-04-30T13:12:08.489Z,25.37
2023-04-30T13:14:36.997Z,25.30
2023-04-30T13:17:07.335Z,25.30
2023-04-30T13:19:35.886Z,25.37
2023-04-30T13:22:04.246Z,25.51
2023-04-30T13:24:34.250Z,25.61
2023-04-30T13:27:04.184Z,25.88
2023-04-30T13:29:32.905Z,26.60
2023-04-30T13:32:01.236Z,27.23
2023-04-30T13:34:29.582Z,27.63
2023-04-30T13:36:57.957Z,27.76
2023-04-30T13:39:26.315Z,27.70
2023-04-30T13:41:56.076Z,27.54
2023-04-30T13:44:24.548Z,27.29
2023-04-30T13:46:53.063Z,26.98
2023-04-30T13:49:21.431Z,26.68
2023-04-30T13:51:49.890Z,26.45
2023-04-30T13:54:18.239Z,26.36
2023-04-30T13:56:46.582Z,26.31
2023-04-30T13:59:17.152Z,26.93
2023-04-30T14:01:45.589Z,27.84
2023-04-30T14:04:14.153Z,28.86
2023-04-30T14:06:43.370Z,29.73
2023-04-30T14:09:11.884Z,30.61
2023-04-30T14:11:40.905Z,31.53
2023-04-30T14:14:09.737Z,32.36
2023-04-30T14:16:39.551Z,33.04
2023-04-30T14:19:07.936Z,33.67
2023-04-30T14:21:36.482Z,34.23
2023-04-30T14:24:05.074Z,34.73
2023-04-30T14:26:33.416Z,35.23
2023-04-30T14:29:01.786Z,35.33
2023-04-30T14:31:30.300Z,34.94
2023-04-30T14:34:00.136Z,34.28
2023-04-30T14:36:29.114Z,33.42
2023-04-30T14:38:57.486Z,32.60
2023-04-30T14:41:25.907Z,31.77
2023-04-30T14:43:54.235Z,30.95
2023-04-30T14:46:22.739Z,30.23
2023-04-30T14:48:51.215Z,29.57
2023-04-30T14:51:20.908Z,28.96
2023-04-30T14:53:49.354Z,28.39
2023-04-30T14:56:17.958Z,27.99
2023-04-30T14:58:46.305Z,27.74
2023-04-30T15:01:15.664Z,27.41
2023-04-30T15:03:44.156Z,27.09
2023-04-30T15:06:12.914Z,26.84
2023-04-30T15:08:42.707Z,26.65
2023-04-30T15:11:13.224Z,26.56
2023-04-30T15:13:41.625Z,26.54
2023-04-30T15:16:10.295Z,26.87
2023-04-30T15:18:39.203Z,27.66
2023-04-30T15:21:07.696Z,28.49
2023-04-30T15:23:36.166Z,28.75
2023-04-30T15:26:06.028Z,28.62
2023-04-30T15:28:34.549Z,28.29
2023-04-30T15:31:04.110Z,27.91
2023-04-30T15:33:32.513Z,27.53
2023-04-30T15:36:00.996Z,27.19
2023-04-30T15:38:29.528Z,26.88
2023-04-30T15:40:57.948Z,26.61
2023-04-30T15:43:27.722Z,26.40
2023-04-30T15:45:56.108Z,26.25
2023-04-30T15:48:24.386Z,26.13
2023-04-30T15:50:52.789Z,26.00
2023-04-30T15:53:21.132Z,25.87
2023-04-30T15:55:50.709Z,25.72
2023-04-30T15:58:19.086Z,25.57
2023-04-30T16:00:48.926Z,25.42
2023-04-30T16:03:17.468Z,25.32
2023-04-30T16:05:45.982Z,25.23
2023-04-30T16:08:15.096Z,25.13
2023-04-30T16:10:43.517Z,25.03
2023-04-30T16:13:11.989Z,24.89
2023-04-30T16:15:40.294Z,24.75
2023-04-30T16:18:10.401Z,24.60
2023-04-30T16:20:40.518Z,24.43
2023-04-30T16:23:09.063Z,24.26
2023-04-30T16:25:37.534Z,24.10
2023-04-30T16:28:06.360Z,23.96
2023-04-30T16:30:35.217Z,23.82
2023-04-30T16:33:03.580Z,23.67
2023-04-30T16:35:34.051Z,23.56
2023-04-30T16:38:02.613Z,23.44
2023-04-30T16:40:31.349Z,23.34
2023-04-30T16:43:00.713Z,23.22
2023-04-30T16:45:30.418Z,23.11
2023-04-30T16:47:59.196Z,23.01
2023-04-30T16:50:28.772Z,22.93
2023-04-30T16:52:59.292Z,22.84
2023-04-30T16:55:28.409Z,22.77
2023-04-30T16:57:56.863Z,22.70
2023-04-30T17:00:25.193Z,22.65
2023-04-30T17:02:54.045Z,22.62
2023-04-30T17:05:22.744Z,22.54
2023-04-30T17:07:51.133Z,22.47
2023-04-30T17:10:21.821Z,22.40
2023-04-30T17:12:50.361Z,22.34
2023-04-30T17:15:20.789Z,22.26
2023-04-30T17:17:49.669Z,22.20
2023-04-30T17:20:18.292Z,22.13
2023-04-30T17:22:47.494Z,22.07
2023-04-30T17:25:16.278Z,22.00
2023-04-30T17:27:47.657Z,21.91
2023-04-30T17:30:16.378Z,21.85
2023-04-30T17:32:45.915Z,21.79
2023-04-30T17:35:16.024Z,21.71
2023-04-30T17:37:44.587Z,21.64
2023-04-30T17:40:13.646Z,21.58
2023-04-30T17:42:42.004Z,21.52
2023-04-30T17:45:13.674Z,21.44
2023-04-30T17:47:42.361Z,21.39
2023-04-30T17:50:12.107Z,21.32
2023-04-30T17:52:41.355Z,21.26
2023-04-30T17:55:11.081Z,21.19
2023-04-30T17:57:39.941Z,21.13
2023-04-30T18:00:12.230Z,21.07
2023-04-30T18:02:42.275Z,20.99
2023-04-30T18:05:12.218Z,20.91
2023-04-30T18:07:41.639Z,20.85
2023-04-30T18:10:11.276Z,20.79
2023-04-30T18:12:40.087Z,20.73
2023-04-30T18:15:09.641Z,20.66
2023-04-30T18:17:39.830Z,20.62
2023-04-30T18:20:12.025Z,20.56
2023-04-30T18:22:43.550Z,20.50
2023-04-30T18:25:14.514Z,20.43
2023-04-30T18:27:42.878Z,20.38
2023-04-30T18:30:13.280Z,20.30
2023-04-30T18:32:44.685Z,20.24
2023-04-30T18:35:13.967Z,20.19
2023-04-30T18:37:42.401Z,20.14
2023-04-30T18:40:11.989Z,20.07
2023-04-30T18:42:40.812Z,20.03
2023-04-30T18:45:11.948Z,19.96
2023-04-30T18:47:40.906Z,19.92
2023-04-30T18:50:17.193Z,19.86
2023-04-30T18:52:46.099Z,19.81
2023-04-30T18:55:15.075Z,19.75
2023-04-30T18:57:43.887Z,19.69
2023-04-30T19:00:15.084Z,19.63
2023-04-30T19:02:44.452Z,19.56
2023-04-30T19:05:18.011Z,19.52
2023-04-30T19:07:48.124Z,19.46
2023-04-30T19:10:19.002Z,19.40
2023-04-30T19:12:48.577Z,19.36
2023-04-30T19:15:17.949Z,19.30
2023-04-30T19:17:47.774Z,19.25
2023-04-30T19:20:18.293Z,19.22
2023-04-30T19:22:50.313Z,19.17
2023-04-30T19:25:19.132Z,19.12
2023-04-30T19:27:49.099Z,19.07
2023-04-30T19:30:19.489Z,19.02
2023-04-30T19:32:48.514Z,18.97
2023-04-30T19:35:19.272Z,18.91
2023-04-30T19:37:48.742Z,18.86
2023-04-30T19:40:18.455Z,18.80
2023-04-30T19:42:48.210Z,18.76
2023-04-30T19:45:18.231Z,18.72
2023-04-30T19:47:49.655Z,18.66
2023-04-30T19:50:23.300Z,18.61
2023-04-30T19:52:51.642Z,18.57
2023-04-30T19:55:20.785Z,18.54
2023-04-30T19:57:50.175Z,18.50
2023-04-30T20:00:18.981Z,18.46
2023-04-30T20:02:48.363Z,18.41
2023-04-30T20:05:18.243Z,18.38
2023-04-30T20:07:53.319Z,18.34
2023-04-30T20:10:22.150Z,18.29
2023-04-30T20:12:54.393Z,18.25
2023-04-30T20:15:26.587Z,18.21
2023-04-30T20:17:56.634Z,18.17
2023-04-30T20:20:26.112Z,18.14
2023-04-30T20:23:00.922Z,18.10
2023-04-30T20:25:31.430Z,18.06
2023-04-30T20:28:07.773Z,18.03
2023-04-30T20:30:36.551Z,17.99
2023-04-30T20:33:06.224Z,17.96
2023-04-30T20:35:35.722Z,17.92
2023-04-30T20:38:06.705Z,17.89
2023-04-30T20:40:35.909Z,17.85
2023-04-30T20:43:05.262Z,17.81
2023-04-30T20:45:33.649Z,17.78
2023-04-30T20:48:02.104Z,17.75
2023-04-30T20:50:30.697Z,17.71
2023-04-30T20:52:59.509Z,17.68
2023-04-30T20:55:29.871Z,17.63
2023-04-30T20:57:58.247Z,17.62
2023-04-30T21:00:27.809Z,17.59
2023-04-30T21:02:56.482Z,17.57
2023-04-30T21:05:25.071Z,17.53
2023-04-30T21:07:53.663Z,17.51
2023-04-30T21:10:22.115Z,17.49
2023-04-30T21:12:52.109Z,17.48
2023-04-30T21:15:20.591Z,17.47
2023-04-30T21:17:49.346Z,17.47
2023-04-30T21:20:18.058Z,17.46
2023-04-30T21:22:47.507Z,17.45
2023-04-30T21:25:16.084Z,17.43
2023-04-30T21:27:44.417Z,17.42
2023-04-30T21:30:15.275Z,17.41
2023-04-30T21:32:47.146Z,17.39
2023-04-30T21:35:15.866Z,17.39
2023-04-30T21:37:44.521Z,17.38
2023-04-30T21:40:13.599Z,17.35
2023-04-30T21:42:41.992Z,17.35
2023-04-30T21:45:11.107Z,17.33
2023-04-30T21:47:40.825Z,17.32
2023-04-30T21:50:11.615Z,17.29
2023-04-30T21:52:40.011Z,17.28
2023-04-30T21:55:10.197Z,17.25
2023-04-30T21:57:38.602Z,17.24
2023-04-30T22:00:14.347Z,17.21
2023-04-30T22:02:44.311Z,17.19
2023-04-30T22:05:13.334Z,17.18
2023-04-30T22:07:41.847Z,17.16
2023-04-30T22:10:10.959Z,17.14
2023-04-30T22:12:39.986Z,17.11
2023-04-30T22:15:10.203Z,17.09
2023-04-30T22:17:38.643Z,17.06
2023-04-30T22:20:10.957Z,17.04
2023-04-30T22:22:39.485Z,17.03
2023-04-30T22:25:09.987Z,17.00
2023-04-30T22:27:38.456Z,16.97
2023-04-30T22:30:08.822Z,16.92
2023-04-30T22:32:37.299Z,16.90
2023-04-30T22:35:06.894Z,16.87
2023-04-30T22:37:38.680Z,16.82
2023-04-30T22:40:08.947Z,16.79
2023-04-30T22:42:37.559Z,16.76
2023-04-30T22:45:07.560Z,16.71
2023-04-30T22:47:36.355Z,16.69
2023-04-30T22:50:06.935Z,16.65
2023-04-30T22:52:36.840Z,16.62
2023-04-30T22:55:06.720Z,16.58
2023-04-30T22:57:35.216Z,16.55
2023-04-30T23:00:04.139Z,16.51
2023-04-30T23:02:32.544Z,16.47
2023-04-30T23:05:00.873Z,16.45
2023-04-30T23:07:29.225Z,16.40
2023-04-30T23:09:59.201Z,16.36
2023-04-30T23:12:28.289Z,16.34
2023-04-30T23:14:57.048Z,16.30
2023-04-30T23:17:26.925Z,16.27
2023-04-30T23:19:55.661Z,16.25
2023-04-30T23:22:24.380Z,16.23
2023-04-30T23:24:53.121Z,16.20
2023-04-30T23:27:23.039Z,16.17
2023-04-30T23:29:51.707Z,16.15
2023-04-30T23:32:20.210Z,16.14
2023-04-30T23:34:48.626Z,16.10
2023-04-30T23:37:17.046Z,16.09
2023-04-30T23:39:45.394Z,16.06
2023-04-30T23:42:13.783Z,16.04
2023-04-30T23:44:43.766Z,16.02
2023-04-30T23:47:12.502Z,16.00
2023-04-30T23:49:40.899Z,15.98
2023-04-30T23:52:09.321Z,15.96
2023-04-30T23:54:37.698Z,15.92
2023-04-30T23:57:06.220Z,15.90
2023-04-30T23:59:34.552Z,15.87
